Time;durP1;ratioP1;P1;durP2;ratioP2;P2;SDS_P1;SDS_P2;PMS_P1;PMS_P2;Temp;Humidity;BMP_temperature;BMP_pressure;BME280_temperature;BME280_humidity;BME280_pressure;Samples;Min_cycle;Max_cycle;Signal;HPM_P1;HPM_P2
2021/11/06 00:01:44;;;;;;;19.85;11.48;;;;;;;-139.48;100.00;61774.03;5006507;28;20048;-70
2021/11/06 00:04:28;;;;;;;20.48;12.27;;;;;;;-139.48;100.00;61774.03;5035493;28;20421;-70
2021/11/06 00:07:12;;;;;;;18.00;12.20;;;;;;;-139.48;100.00;61774.03;5020465;28;20268;-70
2021/11/06 00:09:56;;;;;;;20.85;11.75;;;;;;;-139.48;100.00;61774.03;5006339;28;20048;-70
2021/11/06 00:12:40;;;;;;;;;;;;;;;-139.48;100.00;61774.03;5006592;28;20056;-70
2021/11/06 00:15:24;;;;;;;19.70;12.70;;;;;;;-139.48;100.00;61774.03;5020359;28;20419;-70
2021/11/06 00:18:08;;;;;;;26.45;16.58;;;;;;;-139.48;100.00;61774.03;5006053;28;20045;-70
2021/11/06 00:20:52;;;;;;;26.70;15.95;;;;;;;-139.48;100.00;61774.03;5020179;28;20052;-70
2021/11/06 00:23:36;;;;;;;23.05;16.10;;;;;;;-139.48;100.00;61774.03;5006260;28;20518;-70
2021/11/06 00:26:20;;;;;;;24.25;14.70;;;;;;;-139.48;100.00;61774.03;5035021;28;20079;-70
2021/11/06 00:29:05;;;;;;;17.55;12.88;;;;;;;-139.48;100.00;61774.03;5006023;28;20045;-70
2021/11/06 00:31:49;;;;;;;19.42;14.40;;;;;;;-139.48;100.00;61774.03;5034947;28;20107;-70
2021/11/06 00:34:33;;;;;;;16.50;11.98;;;;;;;-139.48;100.00;61774.03;5019790;28;20056;-70
2021/11/06 00:37:18;;;;;;;22.42;13.70;;;;;;;-139.48;100.00;61774.03;5034892;28;20167;-70
2021/11/06 00:40:03;;;;;;;21.83;14.13;;;;;;;-139.48;100.00;61774.03;5006038;28;20179;-70
2021/11/06 00:42:47;;;;;;;19.98;14.02;;;;;;;-139.48;100.00;61774.03;5034517;28;20048;-70
2021/11/06 00:45:31;;;;;;;17.80;10.77;;;;;;;-139.48;100.00;61774.03;5019747;28;20052;-70
2021/11/06 00:48:15;;;;;;;19.50;14.35;;;;;;;-139.48;100.00;61774.03;5019636;28;20055;-70
2021/11/06 00:50:59;;;;;;;22.42;14.48;;;;;;;-139.48;100.00;61774.03;5019285;28;20517;-70
2021/11/06 00:53:43;;;;;;;24.13;13.65;;;;;;;-139.48;100.00;61774.03;5019564;28;20516;-70
2021/11/06 00:56:27;;;;;;;16.38;11.55;;;;;;;-139.48;100.00;61774.03;5034473;28;20091;-70
2021/11/06 00:59:11;;;;;;;17.27;12.38;;;;;;;-139.48;100.00;61774.03;5019181;28;20095;-70
2021/11/06 01:01:55;;;;;;;22.80;14.00;;;;;;;-139.48;100.00;61774.03;5019433;28;20135;-70
2021/11/06 01:04:39;;;;;;;21.13;14.48;;;;;;;-139.48;100.00;61774.03;5019402;28;20137;-70
2021/11/06 01:07:23;;;;;;;26.70;15.07;;;;;;;-139.48;100.00;61774.03;5034145;28;20059;-70
2021/11/06 01:10:09;;;;;;;21.30;14.35;;;;;;;-139.48;100.00;61774.03;5018579;28;20052;-70
2021/11/06 01:12:54;;;;;;;19.92;12.68;;;;;;;-139.48;100.00;61774.03;5018795;28;20094;-70
2021/11/06 01:15:37;;;;;;;17.35;11.00;;;;;;;-139.48;100.00;61774.03;5005135;28;20103;-70
2021/11/06 01:18:21;;;;;;;17.63;10.60;;;;;;;-139.48;100.00;61774.03;5018945;28;20048;-70
2021/11/06 01:21:06;;;;;;;16.45;11.10;;;;;;;-139.48;100.00;61774.03;5019024;28;20107;-70
2021/11/06 01:23:49;;;;;;;15.02;11.00;;;;;;;-139.48;100.00;61774.03;5019115;28;20047;-70
2021/11/06 01:26:33;;;;;;;16.02;12.20;;;;;;;-139.48;100.00;61774.03;5033676;28;20055;-70
2021/11/06 01:29:17;;;;;;;19.25;11.38;;;;;;;-139.48;100.00;61774.03;5033922;28;20461;-70
2021/11/06 01:32:01;;;;;;;14.73;10.80;;;;;;;-139.48;100.00;61774.03;5018889;28;20056;-70
2021/11/06 01:34:45;;;;;;;17.23;11.23;;;;;;;-139.48;100.00;61774.03;5005009;28;20098;-70
2021/11/06 01:37:29;;;;;;;16.58;11.93;;;;;;;-139.48;100.00;61774.03;5033566;28;20130;-70
2021/11/06 01:40:16;;;;;;;14.55;11.25;;;;;;;-139.48;100.00;61774.03;5019043;28;20407;-70
2021/11/06 01:43:00;;;;;;;18.42;13.23;;;;;;;-139.48;100.00;61774.03;5018540;28;20076;-70
2021/11/06 01:45:44;;;;;;;19.92;13.77;;;;;;;-139.48;100.00;61774.03;5018458;28;20472;-70
2021/11/06 01:48:28;;;;;;;15.63;11.38;;;;;;;-139.48;100.00;61774.03;5033649;28;20103;-70
2021/11/06 01:51:12;;;;;;;18.45;10.75;;;;;;;-139.48;100.00;61774.03;5005017;28;20075;-70
2021/11/06 01:53:56;;;;;;;16.90;11.75;;;;;;;-139.48;100.00;61774.03;5018278;28;20130;-70
2021/11/06 01:56:42;;;;;;;21.05;12.88;;;;;;;-139.48;100.00;61774.03;5033682;28;20048;-70
2021/11/06 01:59:26;;;;;;;18.38;12.25;;;;;;;-139.48;100.00;61774.03;5004838;28;20133;-70
2021/11/06 02:02:10;;;;;;;20.88;12.52;;;;;;;-139.48;100.00;61774.03;5033572;28;20068;-70
2021/11/06 02:04:54;;;;;;;16.48;11.80;;;;;;;-139.48;100.00;61774.03;5018558;28;20103;-70
2021/11/06 02:07:38;;;;;;;16.40;11.77;;;;;;;-139.48;100.00;61774.03;5004520;28;20056;-70
2021/11/06 02:10:22;;;;;;;;;;;;;;;-139.48;100.00;61774.03;5018853;28;20179;-71
2021/11/06 02:13:07;;;;;;;20.17;13.50;;;;;;;-139.48;100.00;61774.03;5018030;28;20382;-70
2021/11/06 02:15:51;;;;;;;21.02;12.65;;;;;;;-139.48;100.00;61774.03;5018314;28;20509;-70
2021/11/06 02:18:35;;;;;;;17.45;11.10;;;;;;;-139.48;100.00;61774.03;5018333;28;20044;-70
2021/11/06 02:21:20;;;;;;;;;;;;;;;-139.48;100.00;61774.03;5006228;28;20067;-70
2021/11/06 02:24:05;;;;;;;20.33;12.60;;;;;;;-139.48;100.00;61774.03;5022719;28;20423;-70
2021/11/06 02:26:49;;;;;;;19.95;13.52;;;;;;;-139.48;100.00;61774.03;5022212;28;20045;-70
2021/11/06 02:29:34;;;;;;;19.20;12.88;;;;;;;-139.48;100.00;61774.03;5022323;28;20179;-70
2021/11/06 02:32:18;;;;;;;19.58;13.60;;;;;;;-139.48;100.00;61774.03;5008277;28;20048;-70
2021/11/06 02:35:03;;;;;;;18.52;12.25;;;;;;;-139.48;100.00;61774.03;5008196;28;20048;-70
2021/11/06 02:37:48;;;;;;;16.65;11.45;;;;;;;-139.48;100.00;61774.03;5022110;28;20043;-70
2021/11/06 02:40:31;;;;;;;18.48;12.77;;;;;;;-139.48;100.00;61774.03;5037057;28;20497;-70
2021/11/06 02:43:15;;;;;;;18.83;12.95;;;;;;;-139.48;100.00;61774.03;5008205;28;20132;-70
2021/11/06 02:46:00;;;;;;;14.93;10.18;;;;;;;-139.48;100.00;61774.03;5036956;28;20056;-70
2021/11/06 02:48:43;;;;;;;16.70;11.07;;;;;;;-139.48;100.00;61774.03;5021657;28;20052;-70
2021/11/06 02:51:27;;;;;;;16.90;11.25;;;;;;;-139.48;100.00;61774.03;5021518;28;20040;-70
2021/11/06 02:54:12;;;;;;;16.85;11.45;;;;;;;-139.48;100.00;61774.03;5036798;28;20052;-70
2021/11/06 02:56:56;;;;;;;17.33;11.32;;;;;;;-139.48;100.00;61774.03;5021703;28;20079;-70
2021/11/06 02:59:39;;;;;;;22.30;12.25;;;;;;;-139.48;100.00;61774.03;5007969;28;20047;-70
2021/11/06 03:02:24;;;;;;;15.73;11.55;;;;;;;-139.48;100.00;61774.03;5021487;28;20086;-70
2021/11/06 03:05:10;;;;;;;20.42;13.13;;;;;;;-139.48;100.00;61774.03;5021681;28;20052;-70
2021/11/06 03:07:54;;;;;;;20.25;12.50;;;;;;;-139.48;100.00;61774.03;5007644;28;20140;-70
2021/11/06 03:10:38;;;;;;;23.83;12.70;;;;;;;-139.48;100.00;61774.03;5021133;28;20049;-70
2021/11/06 03:13:21;;;;;;;17.00;11.80;;;;;;;-139.48;100.00;61774.03;5021411;28;20104;-70
2021/11/06 03:16:10;;;;;;;24.10;15.05;;;;;;;-139.48;100.00;61774.03;5007521;28;20418;-70
2021/11/06 03:18:54;;;;;;;120.20;60.20;;;;;;;-139.48;100.00;61774.03;5021303;28;20047;-70
2021/11/06 03:21:38;;;;;;;39.80;23.38;;;;;;;-139.48;100.00;61774.03;5036001;28;20091;-70
2021/11/06 03:24:22;;;;;;;22.15;14.32;;;;;;;-139.48;100.00;61774.03;5007431;28;20115;-70
2021/11/06 03:27:06;;;;;;;16.55;11.20;;;;;;;-139.48;100.00;61774.03;5021038;28;20084;-70
2021/11/06 03:29:50;;;;;;;21.58;13.48;;;;;;;-139.48;100.00;61774.03;5021336;28;20561;-70
2021/11/06 03:32:35;;;;;;;19.10;13.27;;;;;;;-139.48;100.00;61774.03;5006190;28;20080;-70
2021/11/06 03:35:19;;;;;;;18.08;12.38;;;;;;;-139.48;100.00;61774.03;5036073;28;20160;-70
2021/11/06 03:38:03;;;;;;;22.58;12.68;;;;;;;-139.48;100.00;61774.03;5007127;28;20442;-70
2021/11/06 03:40:47;;;;;;;22.58;14.25;;;;;;;-139.48;100.00;61774.03;5035853;28;20090;-70
2021/11/06 03:43:30;;;;;;;20.35;13.77;;;;;;;-139.48;100.00;61774.03;5022195;28;20056;-69
2021/11/06 03:46:14;;;;;;;23.63;13.98;;;;;;;-139.48;100.00;61774.03;5006905;28;20521;-70
2021/11/06 03:48:59;;;;;;;;;;;;;;;-139.48;100.00;61774.03;5007256;28;20136;-69
2021/11/06 03:51:43;;;;;;;18.58;12.57;;;;;;;-139.48;100.00;61774.03;5006855;28;20298;-69
2021/11/06 03:54:27;;;;;;;16.23;11.88;;;;;;;-139.48;100.00;61774.03;5020672;28;20047;-69
2021/11/06 03:57:11;;;;;;;17.85;11.68;;;;;;;-139.48;100.00;61774.03;5006949;28;20047;-69
2021/11/06 03:59:54;;;;;;;21.13;11.73;;;;;;;-139.48;100.00;61774.03;5035210;28;20048;-69
2021/11/06 04:02:40;;;;;;;25.05;14.98;;;;;;;-139.48;100.00;61774.03;5006571;28;20052;-69
2021/11/06 04:05:24;;;;;;;20.88;13.88;;;;;;;-139.48;100.00;61774.03;5020419;28;20513;-69
2021/11/06 04:08:11;;;;;;;19.27;12.73;;;;;;;-139.48;100.00;61774.03;5006138;28;20068;-69
2021/11/06 04:10:55;;;;;;;20.08;12.77;;;;;;;-139.48;100.00;61774.03;5020235;28;20052;-69
2021/11/06 04:13:40;;;;;;;21.30;13.15;;;;;;;-139.48;100.00;61774.03;5020565;28;20055;-68
2021/11/06 04:16:24;;;;;;;18.58;11.88;;;;;;;-139.48;100.00;61774.03;5020097;28;20052;-70
2021/11/06 04:19:08;;;;;;;20.88;12.93;;;;;;;-139.48;100.00;61774.03;5020118;28;20047;-69
2021/11/06 04:21:53;;;;;;;17.85;12.48;;;;;;;-139.48;100.00;61774.03;5020024;28;20091;-69
2021/11/06 04:24:39;;;;;;;16.70;11.82;;;;;;;-139.48;100.00;61774.03;5006526;28;20560;-69
2021/11/06 04:27:23;;;;;;;17.23;11.52;;;;;;;-139.48;100.00;61774.03;5006402;28;20075;-69
2021/11/06 04:30:07;;;;;;;;;;;;;;;-139.48;100.00;61774.03;5035553;28;20051;-69
2021/11/06 04:32:51;;;;;;;20.97;12.83;;;;;;;-139.48;100.00;61774.03;5034945;28;19920;-69
2021/11/06 04:35:35;;;;;;;21.33;13.18;;;;;;;-139.48;100.00;61774.03;5035219;28;20262;-70
2021/11/06 04:38:19;;;;;;;;;;;;;;;-139.48;100.00;61774.03;5020429;28;20044;-69
2021/11/06 04:41:04;;;;;;;17.92;11.77;;;;;;;-139.48;100.00;61774.03;5035215;28;19924;-70
2021/11/06 04:43:47;;;;;;;16.85;11.00;;;;;;;-139.48;100.00;61774.03;5005417;28;20136;-69
2021/11/06 04:46:31;;;;;;;17.42;12.07;;;;;;;-139.48;100.00;61774.03;5033928;28;20055;-70
2021/11/06 04:49:15;;;;;;;24.35;14.68;;;;;;;-139.48;100.00;61774.03;5005826;28;20072;-69
2021/11/06 04:51:59;;;;;;;23.70;14.60;;;;;;;-139.48;100.00;61774.03;5005353;28;20052;-70
2021/11/06 04:54:43;;;;;;;22.02;14.43;;;;;;;-139.48;100.00;61774.03;5034703;28;20063;-69
2021/11/06 04:57:27;;;;;;;22.35;14.45;;;;;;;-139.48;100.00;61774.03;5005716;28;20048;-69
2021/11/06 05:00:13;;;;;;;25.88;14.88;;;;;;;-139.48;100.00;61774.03;5005581;28;20080;-69
2021/11/06 05:02:56;;;;;;;29.08;14.35;;;;;;;-139.48;100.00;61774.03;5005799;28;20052;-69
2021/11/06 05:05:41;;;;;;;29.70;17.08;;;;;;;-139.48;100.00;61774.03;5034473;28;20140;-69
2021/11/06 05:08:25;;;;;;;30.45;15.68;;;;;;;-139.48;100.00;61774.03;5019072;28;20122;-69
2021/11/06 05:11:09;;;;;;;;;;;;;;;-139.48;100.00;61774.03;5005592;28;20149;-69
2021/11/06 05:13:53;;;;;;;33.70;15.63;;;;;;;-139.48;100.00;61774.03;5019278;28;19924;-69
2021/11/06 05:16:37;;;;;;;;;;;;;;;-139.48;100.00;61774.03;5005376;28;20047;-69
2021/11/06 05:19:21;;;;;;;59.30;20.00;;;;;;;-139.48;100.00;61774.03;5019517;28;20022;-69
2021/11/06 05:22:07;;;;;;;40.10;17.42;;;;;;;-139.48;100.00;61774.03;5019105;28;20044;-69
2021/11/06 05:24:52;;;;;;;82.72;20.92;;;;;;;-139.48;100.00;61774.03;5033970;28;20056;-69
2021/11/06 05:27:36;;;;;;;100.60;20.70;;;;;;;-139.48;100.00;61774.03;5018968;28;20502;-69
2021/11/06 05:30:22;;;;;;;77.25;22.02;;;;;;;-139.48;100.00;61774.03;5019036;28;20080;-69
2021/11/06 05:33:05;;;;;;;70.47;18.23;;;;;;;-139.48;100.00;61774.03;5018772;28;20047;-69
2021/11/06 05:35:49;;;;;;;81.05;18.50;;;;;;;-139.48;100.00;61774.03;5004737;28;20071;-69
2021/11/06 05:38:33;;;;;;;129.70;22.02;;;;;;;-139.48;100.00;61774.03;5018777;28;20452;-70
2021/11/06 05:41:17;;;;;;;140.20;20.45;;;;;;;-139.48;100.00;61774.03;5018836;28;20084;-70
2021/11/06 05:44:02;;;;;;;42.78;14.70;;;;;;;-139.48;100.00;61774.03;5018948;28;20095;-69
2021/11/06 05:46:46;;;;;;;99.00;20.02;;;;;;;-139.48;100.00;61774.03;5018602;28;20465;-69
2021/11/06 05:49:30;;;;;;;63.88;18.35;;;;;;;-139.48;100.00;61774.03;5018791;28;20095;-69
2021/11/06 05:52:14;;;;;;;76.45;18.73;;;;;;;-139.48;100.00;61774.03;5033497;28;20119;-70
2021/11/06 05:54:58;;;;;;;51.20;17.55;;;;;;;-139.48;100.00;61774.03;5033659;28;20052;-70
2021/11/06 05:57:42;;;;;;;;;;;;;;;-139.48;100.00;61774.03;5004719;28;20075;-69
2021/11/06 06:00:26;;;;;;;107.33;20.40;;;;;;;-139.48;100.00;61774.03;5018547;28;19967;-70
2021/11/06 06:03:10;;;;;;;40.33;16.30;;;;;;;-139.48;100.00;61774.03;5033829;28;20529;-70
2021/11/06 06:05:54;;;;;;;39.30;18.27;;;;;;;-139.48;100.00;61774.03;5033628;28;20056;-70
2021/11/06 06:08:38;;;;;;;75.43;18.85;;;;;;;-139.48;100.00;61774.03;5004373;28;20473;-70
2021/11/06 06:11:22;;;;;;;88.53;20.20;;;;;;;-139.48;100.00;61774.03;5033235;28;20052;-69
2021/11/06 06:14:06;;;;;;;34.67;17.15;;;;;;;-139.48;100.00;61774.03;5018477;28;20064;-69
2021/11/06 06:16:50;;;;;;;37.95;16.85;;;;;;;-139.48;100.00;61774.03;5033267;28;20115;-70
2021/11/06 06:19:34;;;;;;;33.50;17.33;;;;;;;-139.48;100.00;61774.03;5018403;28;20148;-70
2021/11/06 06:22:18;;;;;;;79.50;19.27;;;;;;;-139.48;100.00;61774.03;5018100;28;20047;-70
2021/11/06 06:25:02;;;;;;;;;;;;;;;-139.48;100.00;61774.03;5018998;28;20072;-70
2021/11/06 06:27:46;;;;;;;35.40;16.48;;;;;;;-139.48;100.00;61774.03;5018045;28;19924;-69
2021/11/06 06:30:31;;;;;;;72.35;18.42;;;;;;;-139.48;100.00;61774.03;5033363;28;20091;-70
2021/11/06 06:33:15;;;;;;;49.85;17.48;;;;;;;-139.48;100.00;61774.03;5033249;28;20509;-69
2021/11/06 06:35:59;;;;;;;;;;;;;;;-139.48;100.00;61774.03;5018997;28;20051;-70
2021/11/06 06:38:43;;;;;;;62.47;17.25;;;;;;;-139.48;100.00;61774.03;5018271;28;19967;-70
2021/11/06 06:41:27;;;;;;;82.45;17.95;;;;;;;-139.48;100.00;61774.03;5033105;28;20048;-70
2021/11/06 06:44:11;;;;;;;33.22;15.63;;;;;;;-139.48;100.00;61774.03;5004012;28;20090;-70
2021/11/06 06:46:55;;;;;;;;;;;;;;;-139.48;100.00;61774.03;5004578;28;20096;-70
2021/11/06 06:49:39;;;;;;;35.87;16.40;;;;;;;-139.48;100.00;61774.03;5004676;28;20004;-70
2021/11/06 06:52:24;;;;;;;62.47;16.70;;;;;;;-139.48;100.00;61774.03;5004132;28;20080;-70
2021/11/06 06:55:08;;;;;;;66.82;16.45;;;;;;;-139.48;100.00;61774.03;5018163;28;20051;-70
2021/11/06 06:57:53;;;;;;;63.38;15.43;;;;;;;-139.48;100.00;61774.03;5018125;28;20052;-70
2021/11/06 07:00:37;;;;;;;41.97;14.90;;;;;;;-139.48;100.00;61774.03;5017961;28;20049;-70
2021/11/06 07:03:20;;;;;;;39.38;14.80;;;;;;;-139.48;100.00;61774.03;5004308;28;20051;-70
2021/11/06 07:06:04;;;;;;;37.90;15.68;;;;;;;-139.48;100.00;61774.03;5003892;28;20095;-70
2021/11/06 07:08:48;;;;;;;;;;;;;;;-139.48;100.00;61774.03;5020257;28;20419;-70
2021/11/06 07:11:32;;;;;;;27.85;14.52;;;;;;;-139.48;100.00;61774.03;5007723;28;19919;-70
2021/11/06 07:14:17;;;;;;;48.15;14.32;;;;;;;-139.48;100.00;61774.03;5021349;28;20132;-69
2021/11/06 07:17:01;;;;;;;31.05;15.45;;;;;;;-139.48;100.00;61774.03;5021193;28;20534;-69
2021/11/06 07:19:45;;;;;;;;;;;;;;;-139.48;100.00;61774.03;5021922;28;20131;-70
2021/11/06 07:22:29;;;;;;;49.58;14.90;;;;;;;-139.48;100.00;61774.03;5021336;28;20339;-70
2021/11/06 07:25:13;;;;;;;40.65;15.23;;;;;;;-139.48;100.00;61774.03;5021250;28;20083;-69
2021/11/06 07:27:57;;;;;;;57.50;15.45;;;;;;;-139.48;100.00;61774.03;5020929;28;20050;-70
2021/11/06 07:30:41;;;;;;;;;;;;;;;-139.48;100.00;61774.03;5009924;28;20063;-70
2021/11/06 07:33:25;;;;;;;106.63;14.80;;;;;;;-139.48;100.00;61774.03;5022432;28;19920;-70
2021/11/06 07:36:10;;;;;;;135.77;16.98;;;;;;;-139.48;100.00;61774.03;5021440;28;20552;-69
2021/11/06 07:38:54;;;;;;;37.53;12.88;;;;;;;-139.48;100.00;61774.03;5035739;28;20045;-69
2021/11/06 07:41:38;;;;;;;30.55;17.50;;;;;;;-139.48;100.00;61774.03;5035789;28;20128;-70
2021/11/06 07:44:22;;;;;;;32.17;14.80;;;;;;;-139.48;100.00;61774.03;5020888;28;20521;-70
2021/11/06 07:47:06;;;;;;;43.97;15.32;;;;;;;-139.48;100.00;61774.03;5035781;28;20576;-69
2021/11/06 07:49:50;;;;;;;34.47;13.25;;;;;;;-139.48;100.00;61774.03;5020815;28;20094;-70
2021/11/06 07:52:34;;;;;;;;;;;;;;;-139.48;100.00;61774.03;5021278;28;20056;-70
2021/11/06 07:55:18;;;;;;;23.42;13.30;;;;;;;-139.48;100.00;61774.03;5020672;28;19971;-70
2021/11/06 07:58:02;;;;;;;28.60;14.13;;;;;;;-139.48;100.00;61774.03;5035451;28;20064;-70
2021/11/06 08:00:45;;;;;;;33.08;12.43;;;;;;;-139.48;100.00;61774.03;5020505;28;20548;-70
2021/11/06 08:03:31;;;;;;;50.95;13.07;;;;;;;-139.48;100.00;61774.03;5020757;28;20048;-70
2021/11/06 08:06:17;;;;;;;43.53;13.13;;;;;;;-139.48;100.00;61774.03;5035118;28;20083;-70
2021/11/06 08:09:02;;;;;;;32.10;12.20;;;;;;;-139.48;100.00;61774.03;5034745;28;20179;-70
2021/11/06 08:11:46;;;;;;;86.78;14.73;;;;;;;-139.48;100.00;61774.03;5019391;28;20183;-70
2021/11/06 08:14:30;;;;;;;59.15;14.00;;;;;;;-139.48;100.00;61774.03;5019890;28;20111;-70
2021/11/06 08:17:14;;;;;;;61.83;13.98;;;;;;;-139.48;100.00;61774.03;5019911;28;20521;-70
2021/11/06 08:19:58;;;;;;;53.30;13.75;;;;;;;-139.48;100.00;61774.03;5034445;28;20051;-69
2021/11/06 08:22:42;;;;;;;73.88;14.35;;;;;;;-139.48;100.00;61774.03;5019275;28;20052;-69
2021/11/06 08:25:26;;;;;;;93.72;16.17;;;;;;;-139.48;100.00;61774.03;5019172;28;20048;-70
2021/11/06 08:28:10;;;;;;;100.63;17.33;;;;;;;-139.48;100.00;61774.03;5019441;28;20095;-70
2021/11/06 08:30:54;;;;;;;51.20;16.40;;;;;;;-139.48;100.00;61774.03;5019115;28;20099;-70
2021/11/06 08:33:38;;;;;;;53.15;15.93;;;;;;;-139.48;100.00;61774.03;5005403;28;20149;-69
2021/11/06 08:36:22;;;;;;;30.48;15.02;;;;;;;-139.48;100.00;61774.03;5019311;28;20391;-69
2021/11/06 08:39:07;;;;;;;72.90;15.93;;;;;;;-139.48;100.00;61774.03;5019023;28;20195;-70
2021/11/06 08:41:52;;;;;;;39.78;14.98;;;;;;;-139.48;100.00;61774.03;5019363;28;20053;-70
2021/11/06 08:44:36;;;;;;;30.70;14.68;;;;;;;-139.48;100.00;61774.03;5018895;28;20509;-70
2021/11/06 08:47:19;;;;;;;40.30;15.07;;;;;;;-139.48;100.00;61774.03;5018829;28;20517;-70
2021/11/06 08:50:06;;;;;;;39.50;14.95;;;;;;;-139.48;100.00;61774.03;5018996;28;20056;-70
2021/11/06 08:52:51;;;;;;;36.88;15.23;;;;;;;-139.48;100.00;61774.03;5033654;28;20546;-70
2021/11/06 08:55:35;;;;;;;24.83;15.65;;;;;;;-139.48;100.00;61774.03;5018593;28;20060;-70
2021/11/06 08:58:19;;;;;;;34.08;15.57;;;;;;;-139.48;100.00;61774.03;5005081;28;20100;-70
2021/11/06 09:01:03;;;;;;;32.83;16.63;;;;;;;-139.48;100.00;61774.03;5004778;28;20107;-70
2021/11/06 09:03:47;;;;;;;29.42;15.98;;;;;;;-139.48;100.00;61774.03;5004886;28;20048;-70
2021/11/06 09:06:34;;;;;;;33.85;16.85;;;;;;;-139.48;100.00;61774.03;5018696;28;20096;-69
2021/11/06 09:09:18;;;;;;;44.75;18.08;;;;;;;-139.48;100.00;61774.03;5004859;28;20056;-70
2021/11/06 09:12:04;;;;;;;28.30;16.25;;;;;;;-139.48;100.00;61774.03;5004419;28;20048;-70
2021/11/06 09:14:48;;;;;;;30.27;16.13;;;;;;;-139.48;100.00;61774.03;5018461;28;20076;-70
2021/11/06 09:17:32;;;;;;;44.63;16.00;;;;;;;-139.48;100.00;61774.03;5033274;28;20421;-70
2021/11/06 09:20:16;;;;;;;39.47;17.05;;;;;;;-139.48;100.00;61774.03;5018519;28;20048;-65
2021/11/06 09:23:00;;;;;;;38.55;17.60;;;;;;;-139.48;100.00;61774.03;5017919;28;20056;-70
2021/11/06 09:25:44;;;;;;;43.85;16.75;;;;;;;-139.48;100.00;61774.03;5018210;28;20052;-70
2021/11/06 09:28:32;;;;;;;35.85;17.58;;;;;;;-139.48;100.00;61774.03;5018156;28;20052;-70
2021/11/06 09:31:17;;;;;;;28.83;16.70;;;;;;;-139.48;100.00;61774.03;5017959;28;20123;-70
2021/11/06 09:34:02;;;;;;;55.75;17.15;;;;;;;-139.48;100.00;61774.03;5032765;28;20106;-70
2021/11/06 09:36:46;;;;;;;57.08;17.52;;;;;;;-139.48;100.00;61774.03;5018010;28;20556;-70
2021/11/06 09:39:32;;;;;;;42.47;15.88;;;;;;;-139.48;100.00;61774.03;5004080;28;20095;-70
2021/11/06 09:42:16;;;;;;;39.50;15.98;;;;;;;-139.48;100.00;61774.03;5004093;28;20095;-70
2021/11/06 09:45:00;;;;;;;55.72;15.70;;;;;;;-139.48;100.00;61774.03;5030342;23;20061;-67
2021/11/06 09:47:45;;;;;;;85.88;16.48;;;;;;;-139.48;100.00;61774.03;5017599;28;20053;-67
2021/11/06 09:50:29;;;;;;;132.63;19.13;;;;;;;-139.48;100.00;61774.03;5017777;28;20079;-63
2021/11/06 09:53:13;;;;;;;50.30;18.00;;;;;;;-139.48;100.00;61774.03;5017751;28;20076;-67
2021/11/06 09:55:58;;;;;;;66.97;19.70;;;;;;;-139.48;100.00;61774.03;5017454;28;20052;-65
2021/11/06 09:58:42;;;;;;;38.53;16.70;;;;;;;-139.48;100.00;61774.03;5032558;28;20048;-68
2021/11/06 10:01:31;;;;;;;118.68;19.70;;;;;;;-139.48;100.00;61774.03;5017735;28;20049;-65
2021/11/06 10:04:15;;;;;;;31.88;18.00;;;;;;;-139.48;100.00;61774.03;5032562;28;20056;-67
2021/11/06 10:07:21;;;;;;;33.85;17.75;;;;;;;-139.48;100.00;61774.03;5003653;28;20044;-67
2021/11/06 10:10:15;;;;;;;38.08;18.67;;;;;;;-139.48;100.00;61774.03;5017417;28;20052;-67
2021/11/06 10:13:00;;;;;;;43.45;18.73;;;;;;;-139.48;100.00;61774.03;5017671;28;20472;-66
2021/11/06 10:15:57;;;;;;;34.75;18.05;;;;;;;-139.48;100.00;61774.03;5032393;28;20056;-67
2021/11/06 10:18:41;;;;;;;34.08;17.80;;;;;;;-139.48;100.00;61774.03;5004043;28;20044;-67
2021/11/06 10:21:26;;;;;;;55.60;18.15;;;;;;;-139.48;100.00;61774.03;5032650;28;20096;-67
2021/11/06 10:24:11;;;;;;;41.03;18.45;;;;;;;-139.48;100.00;61774.03;5017466;28;20056;-66
2021/11/06 10:27:21;;;;;;;62.75;19.38;;;;;;;-139.48;100.00;61774.03;5032457;28;20132;-67
2021/11/06 10:30:18;;;;;;;69.72;18.02;;;;;;;-139.48;100.00;61774.03;5032578;28;20186;-68
2021/11/06 10:33:13;;;;;;;90.57;21.85;;;;;;;-139.48;100.00;61774.03;5017203;28;20452;-69
2021/11/06 10:36:02;;;;;;;37.42;19.23;;;;;;;-139.48;100.00;61774.03;5018015;28;20039;-68
2021/11/06 10:39:02;;;;;;;47.53;20.70;;;;;;;-139.48;100.00;61774.03;5032432;28;20445;-68
2021/11/06 10:41:46;;;;;;;36.00;18.83;;;;;;;-139.48;100.00;61774.03;5017452;28;20134;-66
2021/11/06 10:44:30;;;;;;;31.60;18.67;;;;;;;-139.48;100.00;61774.03;5006957;28;20048;-68
2021/11/06 10:47:14;;;;;;;49.75;19.40;;;;;;;-139.48;100.00;61774.03;5020999;28;20133;-69
2021/11/06 10:50:00;;;;;;;38.33;18.77;;;;;;;-139.48;100.00;61774.03;5021446;28;20103;-69
2021/11/06 10:52:46;;;;;;;39.03;20.13;;;;;;;-139.48;100.00;61774.03;5021299;28;20048;-69
2021/11/06 10:55:42;;;;;;;58.63;19.08;;;;;;;-139.48;100.00;61774.03;5035636;28;20052;-69
2021/11/06 10:58:31;;;;;;;46.78;17.80;;;;;;;-139.48;100.00;61774.03;5020688;28;20044;-69
2021/11/06 11:01:32;;;;;;;29.70;17.83;;;;;;;-139.48;100.00;61774.03;5035636;28;20237;-69
2021/11/06 11:04:18;;;;;;;41.30;18.88;;;;;;;-139.48;100.00;61774.03;5006531;28;20096;-67
2021/11/06 11:07:02;;;;;;;30.75;18.42;;;;;;;-139.48;100.00;61774.03;5035694;28;20469;-67
2021/11/06 11:09:46;;;;;;;32.55;19.77;;;;;;;-139.48;100.00;61774.03;5007045;28;20137;-67
2021/11/06 11:12:30;;;;;;;29.83;18.08;;;;;;;-139.48;100.00;61774.03;5020567;28;20132;-69
2021/11/06 11:15:24;;;;;;;28.00;16.98;;;;;;;-139.48;100.00;61774.03;5020294;28;20055;-69
2021/11/06 11:18:28;;;;;;;29.30;17.80;;;;;;;-139.48;100.00;61774.03;5006652;28;20048;-68
2021/11/06 11:21:31;;;;;;;26.23;17.50;;;;;;;-139.48;100.00;61774.03;5020340;28;20048;-68
2021/11/06 11:24:18;;;;;;;26.45;17.65;;;;;;;-139.48;100.00;61774.03;5006656;28;20048;-68
2021/11/06 11:27:02;;;;;;;24.73;16.00;;;;;;;-139.48;100.00;61774.03;5020271;28;20164;-67
2021/11/06 11:29:48;;;;;;;28.40;17.80;;;;;;;-139.48;100.00;61774.03;5020280;28;20048;-69
2021/11/06 11:32:32;;;;;;;25.88;15.50;;;;;;;-139.48;100.00;61774.03;5006441;28;20415;-68
2021/11/06 11:35:16;;;;;;;25.35;16.58;;;;;;;-139.48;100.00;61774.03;5020197;28;20052;-69
2021/11/06 11:38:00;;;;;;;27.67;17.55;;;;;;;-139.48;100.00;61774.03;5020107;28;20064;-69
2021/11/06 11:41:10;;;;;;;23.20;16.52;;;;;;;-139.48;100.00;61774.03;5020312;28;20453;-69
2021/11/06 11:44:21;;;;;;;28.35;17.52;;;;;;;-139.48;100.00;61774.03;4997263;28;20508;-69
2021/11/06 11:47:11;;;;;;;28.10;17.80;;;;;;;-139.48;100.00;61774.03;5006196;28;20139;-68
2021/11/06 11:49:58;;;;;;;36.22;19.33;;;;;;;-139.48;100.00;61774.03;5019425;28;20091;-68
2021/11/06 11:52:43;;;;;;;29.38;18.75;;;;;;;-139.48;100.00;61774.03;5019738;28;20536;-69
2021/11/06 11:55:42;;;;;;;30.30;19.33;;;;;;;-139.48;100.00;61774.03;5005276;28;20095;-69
2021/11/06 11:58:34;;;;;;;31.27;18.67;;;;;;;-139.48;100.00;61774.03;5020005;28;20115;-68
2021/11/06 12:01:22;;;;;;;31.73;19.15;;;;;;;-139.48;100.00;61774.03;5019306;28;20426;-68
2021/11/06 12:04:17;;;;;;;33.05;19.27;;;;;;;-139.48;100.00;61774.03;5019703;28;20190;-67
2021/11/06 12:07:15;;;;;;;34.67;19.95;;;;;;;-139.48;100.00;61774.03;5019582;28;20048;-68
2021/11/06 12:10:25;;;;;;;34.15;20.98;;;;;;;-139.48;100.00;61774.03;5019700;28;20107;-68
2021/11/06 12:13:28;;;;;;;30.30;18.90;;;;;;;-139.48;100.00;61774.03;5034468;28;20155;-67
2021/11/06 12:16:13;;;;;;;34.33;21.33;;;;;;;-139.48;100.00;61774.03;5034121;28;20187;-67
2021/11/06 12:18:59;;;;;;;32.67;20.65;;;;;;;-139.48;100.00;61774.03;5019521;28;20044;-67